sensor_id;sensor_type;location;lat;lon;timestamp;pressure;altitude;pressure_sealevel;temperature;humidity
77626;BME280;66794;43.764;10.436;2023-03-01T00:02:03;101521.69;;;10.27;54.40
77626;BME280;66794;43.764;10.436;2023-03-01T00:04:29;101502.22;;;10.14;56.02
77626;BME280;66794;43.764;10.436;2023-03-01T00:06:54;101527.44;;;9.97;57.55
77626;BME280;66794;43.764;10.436;2023-03-01T00:09:20;101526.03;;;9.93;58.79
77626;BME280;66794;43.764;10.436;2023-03-01T00:11:45;101524.34;;;9.92;57.02
77626;BME280;66794;43.764;10.436;2023-03-01T00:14:11;101520.94;;;9.90;57.34
77626;BME280;66794;43.764;10.436;2023-03-01T00:16:38;101527.03;;;9.74;59.37
77626;BME280;66794;43.764;10.436;2023-03-01T00:19:04;101518.47;;;9.79;58.57
77626;BME280;66794;43.764;10.436;2023-03-01T00:21:30;101533.28;;;9.74;58.59
77626;BME280;66794;43.764;10.436;2023-03-01T00:23:55;101524.59;;;9.71;60.25
77626;BME280;66794;43.764;10.436;2023-03-01T00:26:21;101545.00;;;9.65;60.92
77626;BME280;66794;43.764;10.436;2023-03-01T00:28:47;101551.00;;;9.59;61.42
77626;BME280;66794;43.764;10.436;2023-03-01T00:31:13;101555.94;;;9.46;64.59
77626;BME280;66794;43.764;10.436;2023-03-01T00:33:39;101555.81;;;9.38;65.85
77626;BME280;66794;43.764;10.436;2023-03-01T00:36:05;101570.09;;;9.20;70.01
77626;BME280;66794;43.764;10.436;2023-03-01T00:38:30;101551.88;;;9.22;69.06
77626;BME280;66794;43.764;10.436;2023-03-01T00:41:02;101545.78;;;9.20;67.03
77626;BME280;66794;43.764;10.436;2023-03-01T00:43:28;101551.38;;;9.09;69.65
77626;BME280;66794;43.764;10.436;2023-03-01T00:45:53;101556.22;;;9.06;71.99
77626;BME280;66794;43.764;10.436;2023-03-01T00:48:18;101542.88;;;8.94;71.45
77626;BME280;66794;43.764;10.436;2023-03-01T00:50:44;101550.22;;;9.02;71.16
77626;BME280;66794;43.764;10.436;2023-03-01T00:53:09;101537.81;;;8.82;74.44
77626;BME280;66794;43.764;10.436;2023-03-01T00:55:35;101528.44;;;8.66;76.33
77626;BME280;66794;43.764;10.436;2023-03-01T00:58:00;101518.06;;;8.72;74.84
77626;BME280;66794;43.764;10.436;2023-03-01T01:00:26;101512.09;;;8.58;76.64
77626;BME280;66794;43.764;10.436;2023-03-01T01:02:52;101508.44;;;8.50;79.27
77626;BME280;66794;43.764;10.436;2023-03-01T01:05:17;101503.47;;;8.55;77.01
77626;BME280;66794;43.764;10.436;2023-03-01T01:07:46;101489.38;;;8.61;75.86
77626;BME280;66794;43.764;10.436;2023-03-01T01:10:11;101495.28;;;8.74;75.48
77626;BME280;66794;43.764;10.436;2023-03-01T01:12:42;101498.59;;;8.68;74.65
77626;BME280;66794;43.764;10.436;2023-03-01T01:15:08;101493.09;;;8.60;75.92
77626;BME280;66794;43.764;10.436;2023-03-01T01:17:33;101487.69;;;8.50;77.63
77626;BME280;66794;43.764;10.436;2023-03-01T01:19:58;101483.25;;;8.59;76.46
77626;BME280;66794;43.764;10.436;2023-03-01T01:22:24;101463.25;;;8.52;77.05
77626;BME280;66794;43.764;10.436;2023-03-01T01:24:49;101458.69;;;8.52;77.27
77626;BME280;66794;43.764;10.436;2023-03-01T01:27:14;101467.97;;;8.40;77.24
77626;BME280;66794;43.764;10.436;2023-03-01T01:29:40;101461.53;;;8.31;79.06
77626;BME280;66794;43.764;10.436;2023-03-01T01:32:06;101479.72;;;8.29;78.81
77626;BME280;66794;43.764;10.436;2023-03-01T01:34:32;101481.44;;;8.40;77.21
77626;BME280;66794;43.764;10.436;2023-03-01T01:36:57;101491.41;;;8.39;77.12
77626;BME280;66794;43.764;10.436;2023-03-01T01:39:27;101491.97;;;8.43;76.93
77626;BME280;66794;43.764;10.436;2023-03-01T01:41:52;101521.50;;;8.45;79.41
77626;BME280;66794;43.764;10.436;2023-03-01T01:44:22;101526.19;;;8.42;78.86
77626;BME280;66794;43.764;10.436;2023-03-01T01:47:07;101533.84;;;8.18;82.14
77626;BME280;66794;43.764;10.436;2023-03-01T01:49:38;101532.16;;;8.36;80.98
77626;BME280;66794;43.764;10.436;2023-03-01T01:54:42;101519.50;;;8.08;84.27
77626;BME280;66794;43.764;10.436;2023-03-01T01:57:30;101506.00;;;8.08;83.04
77626;BME280;66794;43.764;10.436;2023-03-01T01:59:59;101522.31;;;7.97;85.11
77626;BME280;66794;43.764;10.436;2023-03-01T02:02:25;101494.22;;;7.89;83.33
77626;BME280;66794;43.764;10.436;2023-03-01T02:04:52;101500.59;;;7.98;86.40
77626;BME280;66794;43.764;10.436;2023-03-01T02:07:22;101495.78;;;8.02;84.87
77626;BME280;66794;43.764;10.436;2023-03-01T02:09:48;101487.66;;;7.82;89.43
77626;BME280;66794;43.764;10.436;2023-03-01T02:12:15;101473.91;;;7.85;88.40
77626;BME280;66794;43.764;10.436;2023-03-01T02:14:42;101473.06;;;7.85;86.88
77626;BME280;66794;43.764;10.436;2023-03-01T02:17:07;101470.75;;;7.61;89.54
77626;BME280;66794;43.764;10.436;2023-03-01T02:19:42;101474.88;;;7.65;90.16
77626;BME280;66794;43.764;10.436;2023-03-01T02:22:16;101464.41;;;7.81;86.16
77626;BME280;66794;43.764;10.436;2023-03-01T02:24:50;101472.91;;;7.86;84.10
77626;BME280;66794;43.764;10.436;2023-03-01T02:27:18;101465.13;;;8.03;81.59
77626;BME280;66794;43.764;10.436;2023-03-01T02:29:47;101465.50;;;7.59;90.37
77626;BME280;66794;43.764;10.436;2023-03-01T02:32:12;101462.66;;;7.42;91.07
77626;BME280;66794;43.764;10.436;2023-03-01T02:34:38;101454.28;;;7.54;94.65
77626;BME280;66794;43.764;10.436;2023-03-01T02:37:05;101441.13;;;7.71;88.86
77626;BME280;66794;43.764;10.436;2023-03-01T02:40:18;101427.81;;;7.88;86.04
77626;BME280;66794;43.764;10.436;2023-03-01T02:42:22;101432.31;;;8.07;84.52
77626;BME280;66794;43.764;10.436;2023-03-01T02:44:49;101419.00;;;7.96;85.80
77626;BME280;66794;43.764;10.436;2023-03-01T02:47:14;101415.69;;;8.22;81.24
77626;BME280;66794;43.764;10.436;2023-03-01T02:49:39;101416.13;;;8.07;82.74
77626;BME280;66794;43.764;10.436;2023-03-01T02:52:17;101398.84;;;8.00;84.67
77626;BME280;66794;43.764;10.436;2023-03-01T02:54:48;101410.88;;;8.15;82.74
77626;BME280;66794;43.764;10.436;2023-03-01T02:57:16;101413.84;;;8.12;83.94
77626;BME280;66794;43.764;10.436;2023-03-01T02:59:42;101399.94;;;8.27;82.67
77626;BME280;66794;43.764;10.436;2023-03-01T03:02:18;101393.38;;;8.39;80.25
77626;BME280;66794;43.764;10.436;2023-03-01T03:04:45;101383.72;;;8.36;79.26
77626;BME280;66794;43.764;10.436;2023-03-01T03:07:10;101373.63;;;8.48;78.64
77626;BME280;66794;43.764;10.436;2023-03-01T03:09:36;101372.34;;;8.33;79.88
77626;BME280;66794;43.764;10.436;2023-03-01T03:12:01;101342.00;;;8.21;81.65
77626;BME280;66794;43.764;10.436;2023-03-01T03:14:26;101353.91;;;8.18;81.91
77626;BME280;66794;43.764;10.436;2023-03-01T03:16:51;101366.09;;;8.42;77.54
77626;BME280;66794;43.764;10.436;2023-03-01T03:19:17;101354.47;;;8.32;80.45
77626;BME280;66794;43.764;10.436;2023-03-01T03:21:43;101348.97;;;8.14;82.99
77626;BME280;66794;43.764;10.436;2023-03-01T03:24:09;101355.75;;;8.28;82.05
77626;BME280;66794;43.764;10.436;2023-03-01T03:26:34;101382.31;;;8.23;83.51
77626;BME280;66794;43.764;10.436;2023-03-01T03:28:59;101363.34;;;8.05;82.96
77626;BME280;66794;43.764;10.436;2023-03-01T03:31:25;101366.56;;;8.37;77.42
77626;BME280;66794;43.764;10.436;2023-03-01T03:33:50;101357.88;;;8.43;78.29
77626;BME280;66794;43.764;10.436;2023-03-01T03:36:16;101368.66;;;8.34;80.11
77626;BME280;66794;43.764;10.436;2023-03-01T03:38:43;101363.88;;;8.08;82.32
77626;BME280;66794;43.764;10.436;2023-03-01T03:41:08;101375.69;;;7.88;85.32
77626;BME280;66794;43.764;10.436;2023-03-01T03:43:34;101377.25;;;7.71;89.18
77626;BME280;66794;43.764;10.436;2023-03-01T03:46:00;101390.16;;;7.77;89.30
77626;BME280;66794;43.764;10.436;2023-03-01T03:48:26;101390.03;;;7.69;87.39
77626;BME280;66794;43.764;10.436;2023-03-01T03:50:52;101393.72;;;7.58;89.28
77626;BME280;66794;43.764;10.436;2023-03-01T03:53:18;101390.03;;;7.88;85.54
77626;BME280;66794;43.764;10.436;2023-03-01T03:55:43;101383.91;;;7.96;84.93
77626;BME280;66794;43.764;10.436;2023-03-01T03:58:10;101385.50;;;7.89;85.24
77626;BME280;66794;43.764;10.436;2023-03-01T04:00:39;101388.63;;;7.94;85.56
77626;BME280;66794;43.764;10.436;2023-03-01T04:03:05;101396.56;;;7.86;86.64
77626;BME280;66794;43.764;10.436;2023-03-01T04:05:31;101393.00;;;7.95;85.60
77626;BME280;66794;43.764;10.436;2023-03-01T04:07:57;101398.84;;;8.00;84.04
77626;BME280;66794;43.764;10.436;2023-03-01T04:10:36;101392.28;;;7.93;85.87
77626;BME280;66794;43.764;10.436;2023-03-01T04:13:02;101392.28;;;7.93;85.09
77626;BME280;66794;43.764;10.436;2023-03-01T04:15:28;101384.78;;;7.87;85.50
77626;BME280;66794;43.764;10.436;2023-03-01T04:17:54;101388.19;;;7.89;85.89
77626;BME280;66794;43.764;10.436;2023-03-01T04:20:20;101384.06;;;7.95;83.21
77626;BME280;66794;43.764;10.436;2023-03-01T04:22:56;101384.78;;;7.97;83.93
77626;BME280;66794;43.764;10.436;2023-03-01T04:25:25;101384.94;;;7.95;84.29
77626;BME280;66794;43.764;10.436;2023-03-01T04:27:51;101391.44;;;7.93;84.72
77626;BME280;66794;43.764;10.436;2023-03-01T04:30:16;101384.19;;;7.93;84.62
77626;BME280;66794;43.764;10.436;2023-03-01T04:32:41;101380.53;;;7.94;84.15
77626;BME280;66794;43.764;10.436;2023-03-01T04:35:07;101386.91;;;7.93;85.18
77626;BME280;66794;43.764;10.436;2023-03-01T04:37:33;101385.50;;;7.89;84.52
77626;BME280;66794;43.764;10.436;2023-03-01T04:39:59;101381.50;;;7.93;84.19
77626;BME280;66794;43.764;10.436;2023-03-01T04:42:25;101382.50;;;8.02;82.46
77626;BME280;66794;43.764;10.436;2023-03-01T04:44:50;101380.50;;;8.04;80.74
77626;BME280;66794;43.764;10.436;2023-03-01T04:47:16;101374.41;;;8.02;82.62
77626;BME280;66794;43.764;10.436;2023-03-01T04:49:42;101389.75;;;8.01;84.04
77626;BME280;66794;43.764;10.436;2023-03-01T04:52:07;101389.84;;;8.09;81.94
77626;BME280;66794;43.764;10.436;2023-03-01T04:54:33;101386.19;;;8.10;84.67
77626;BME280;66794;43.764;10.436;2023-03-01T04:56:58;101376.81;;;8.05;86.10
77626;BME280;66794;43.764;10.436;2023-03-01T04:59:24;101367.31;;;8.01;86.43
77626;BME280;66794;43.764;10.436;2023-03-01T05:01:50;101365.91;;;7.97;87.69
77626;BME280;66794;43.764;10.436;2023-03-01T05:04:15;101364.03;;;7.97;86.75
77626;BME280;66794;43.764;10.436;2023-03-01T05:06:41;101372.84;;;7.99;87.73
77626;BME280;66794;43.764;10.436;2023-03-01T05:09:06;101374.13;;;7.95;86.89
77626;BME280;66794;43.764;10.436;2023-03-01T05:11:31;101379.22;;;7.98;90.43
77626;BME280;66794;43.764;10.436;2023-03-01T05:14:01;101380.38;;;7.86;91.72
77626;BME280;66794;43.764;10.436;2023-03-01T05:16:26;101382.38;;;7.74;90.99
77626;BME280;66794;43.764;10.436;2023-03-01T05:18:51;101379.38;;;7.77;89.18
77626;BME280;66794;43.764;10.436;2023-03-01T05:21:17;101381.38;;;7.65;92.23
77626;BME280;66794;43.764;10.436;2023-03-01T05:23:42;101385.06;;;7.64;93.75
77626;BME280;66794;43.764;10.436;2023-03-01T05:26:07;101386.78;;;7.46;95.50
77626;BME280;66794;43.764;10.436;2023-03-01T05:28:33;101383.22;;;7.55;95.64
77626;BME280;66794;43.764;10.436;2023-03-01T05:30:58;101385.81;;;7.67;92.88
77626;BME280;66794;43.764;10.436;2023-03-01T05:33:24;101378.84;;;7.74;92.44
77626;BME280;66794;43.764;10.436;2023-03-01T05:35:50;101380.25;;;7.78;94.69
77626;BME280;66794;43.764;10.436;2023-03-01T05:38:17;101371.31;;;7.68;94.30
77626;BME280;66794;43.764;10.436;2023-03-01T05:40:42;101373.72;;;7.51;96.75
77626;BME280;66794;43.764;10.436;2023-03-01T05:43:09;101374.56;;;7.32;96.57
77626;BME280;66794;43.764;10.436;2023-03-01T05:45:35;101370.88;;;7.24;97.75
77626;BME280;66794;43.764;10.436;2023-03-01T05:48:01;101371.69;;;7.15;99.06
77626;BME280;66794;43.764;10.436;2023-03-01T05:50:27;101360.94;;;7.24;98.87
77626;BME280;66794;43.764;10.436;2023-03-01T05:53:00;101360.94;;;7.44;99.79
77626;BME280;66794;43.764;10.436;2023-03-01T05:55:26;101357.56;;;7.51;100.00
77626;BME280;66794;43.764;10.436;2023-03-01T05:57:51;101366.78;;;7.78;93.77
77626;BME280;66794;43.764;10.436;2023-03-01T06:00:17;101360.97;;;7.73;93.75
77626;BME280;66794;43.764;10.436;2023-03-01T06:02:43;101362.81;;;7.53;100.00
77626;BME280;66794;43.764;10.436;2023-03-01T06:05:09;101377.97;;;7.63;98.30
77626;BME280;66794;43.764;10.436;2023-03-01T06:07:35;101383.63;;;7.31;100.00
77626;BME280;66794;43.764;10.436;2023-03-01T06:10:01;101392.81;;;7.09;100.00
77626;BME280;66794;43.764;10.436;2023-03-01T06:12:29;101403.47;;;7.30;100.00
77626;BME280;66794;43.764;10.436;2023-03-01T06:14:55;101407.97;;;7.10;100.00
77626;BME280;66794;43.764;10.436;2023-03-01T06:17:20;101407.84;;;7.22;100.00
77626;BME280;66794;43.764;10.436;2023-03-01T06:19:46;101429.31;;;7.43;100.00
77626;BME280;66794;43.764;10.436;2023-03-01T06:22:12;101438.16;;;7.04;100.00
77626;BME280;66794;43.764;10.436;2023-03-01T06:24:37;101441.03;;;7.22;100.00
77626;BME280;66794;43.764;10.436;2023-03-01T06:27:02;101443.47;;;7.45;100.00
77626;BME280;66794;43.764;10.436;2023-03-01T06:29:28;101437.41;;;7.52;100.00
77626;BME280;66794;43.764;10.436;2023-03-01T06:31:53;101453.56;;;7.43;100.00
77626;BME280;66794;43.764;10.436;2023-03-01T06:34:18;101467.34;;;7.59;100.00
77626;BME280;66794;43.764;10.436;2023-03-01T06:36:44;101450.50;;;7.67;100.00
77626;BME280;66794;43.764;10.436;2023-03-01T06:39:09;101461.41;;;7.75;100.00
77626;BME280;66794;43.764;10.436;2023-03-01T06:41:35;101461.41;;;7.75;100.00
77626;BME280;66794;43.764;10.436;2023-03-01T06:44:00;101469.19;;;7.58;100.00
77626;BME280;66794;43.764;10.436;2023-03-01T06:46:25;101467.31;;;7.49;100.00
77626;BME280;66794;43.764;10.436;2023-03-01T06:48:51;101468.25;;;7.79;100.00
77626;BME280;66794;43.764;10.436;2023-03-01T06:51:16;101456.44;;;7.70;100.00
77626;BME280;66794;43.764;10.436;2023-03-01T06:53:42;101468.94;;;7.61;100.00
77626;BME280;66794;43.764;10.436;2023-03-01T06:56:08;101475.75;;;7.56;100.00
77626;BME280;66794;43.764;10.436;2023-03-01T06:58:33;101480.69;;;7.60;100.00
77626;BME280;66794;43.764;10.436;2023-03-01T07:00:58;101500.41;;;7.51;100.00
77626;BME280;66794;43.764;10.436;2023-03-01T07:03:24;101480.91;;;7.38;100.00
77626;BME280;66794;43.764;10.436;2023-03-01T07:05:49;101490.16;;;7.35;100.00
77626;BME280;66794;43.764;10.436;2023-03-01T07:08:17;101502.09;;;7.12;100.00
77626;BME280;66794;43.764;10.436;2023-03-01T07:10:42;101501.84;;;11.65;100.00
77626;BME280;66794;43.764;10.436;2023-03-01T07:13:08;101507.69;;;9.14;100.00
77626;BME280;66794;43.764;10.436;2023-03-01T07:15:33;101527.03;;;8.24;100.00
77626;BME280;66794;43.764;10.436;2023-03-01T07:17:59;101522.78;;;8.40;100.00
77626;BME280;66794;43.764;10.436;2023-03-01T07:20:24;101527.94;;;7.64;100.00
77626;BME280;66794;43.764;10.436;2023-03-01T07:22:50;101536.91;;;7.75;100.00
77626;BME280;66794;43.764;10.436;2023-03-01T07:25:16;101537.19;;;7.72;100.00
77626;BME280;66794;43.764;10.436;2023-03-01T07:27:41;101534.22;;;7.75;98.01
77626;BME280;66794;43.764;10.436;2023-03-01T07:30:07;101544.16;;;7.74;96.63
77626;BME280;66794;43.764;10.436;2023-03-01T07:32:32;101555.50;;;7.68;100.00
77626;BME280;66794;43.764;10.436;2023-03-01T07:34:57;101563.16;;;7.73;100.00
77626;BME280;66794;43.764;10.436;2023-03-01T07:37:23;101569.75;;;7.49;100.00
77626;BME280;66794;43.764;10.436;2023-03-01T07:39:48;101571.97;;;7.34;100.00
77626;BME280;66794;43.764;10.436;2023-03-01T07:42:13;101578.38;;;7.43;100.00
77626;BME280;66794;43.764;10.436;2023-03-01T07:44:39;101579.34;;;7.11;100.00
77626;BME280;66794;43.764;10.436;2023-03-01T07:47:04;101574.88;;;6.91;100.00
77626;BME280;66794;43.764;10.436;2023-03-01T07:49:29;101585.44;;;6.83;100.00
77626;BME280;66794;43.764;10.436;2023-03-01T07:51:55;101581.03;;;6.82;100.00
77626;BME280;66794;43.764;10.436;2023-03-01T07:54:21;101585.09;;;6.76;100.00
77626;BME280;66794;43.764;10.436;2023-03-01T07:56:46;101579.13;;;6.73;100.00
77626;BME280;66794;43.764;10.436;2023-03-01T07:59:11;101589.69;;;6.65;100.00
77626;BME280;66794;43.764;10.436;2023-03-01T08:01:37;101586.81;;;6.98;100.00
77626;BME280;66794;43.764;10.436;2023-03-01T08:04:02;101588.44;;;7.10;100.00
77626;BME280;66794;43.764;10.436;2023-03-01T08:06:29;101587.13;;;7.05;100.00
77626;BME280;66794;43.764;10.436;2023-03-01T08:08:55;101597.63;;;7.29;100.00
77626;BME280;66794;43.764;10.436;2023-03-01T08:11:20;101598.94;;;7.34;100.00
77626;BME280;66794;43.764;10.436;2023-03-01T08:13:47;101598.38;;;7.41;100.00
77626;BME280;66794;43.764;10.436;2023-03-01T08:16:13;101603.88;;;7.39;100.00
77626;BME280;66794;43.764;10.436;2023-03-01T08:18:39;101602.94;;;7.19;100.00
77626;BME280;66794;43.764;10.436;2023-03-01T08:21:05;101609.41;;;7.07;100.00
77626;BME280;66794;43.764;10.436;2023-03-01T08:23:31;101593.66;;;6.81;100.00
77626;BME280;66794;43.764;10.436;2023-03-01T08:26:04;101600.72;;;6.82;100.00
77626;BME280;66794;43.764;10.436;2023-03-01T08:28:29;101603.56;;;7.02;100.00
77626;BME280;66794;43.764;10.436;2023-03-01T08:30:55;101602.44;;;7.04;100.00
77626;BME280;66794;43.764;10.436;2023-03-01T08:33:20;101600.41;;;7.18;100.00
77626;BME280;66794;43.764;10.436;2023-03-01T08:35:45;101598.44;;;6.99;100.00
77626;BME280;66794;43.764;10.436;2023-03-01T08:38:11;101600.16;;;7.30;100.00
77626;BME280;66794;43.764;10.436;2023-03-01T08:40:36;101609.97;;;7.10;100.00
77626;BME280;66794;43.764;10.436;2023-03-01T08:43:01;101603.50;;;6.92;100.00
77626;BME280;66794;43.764;10.436;2023-03-01T08:45:27;101601.38;;;6.96;100.00
77626;BME280;66794;43.764;10.436;2023-03-01T08:47:52;101608.03;;;6.71;100.00
77626;BME280;66794;43.764;10.436;2023-03-01T08:50:18;101598.25;;;6.91;100.00
77626;BME280;66794;43.764;10.436;2023-03-01T08:52:43;101599.41;;;6.77;100.00
77626;BME280;66794;43.764;10.436;2023-03-01T08:55:09;101605.13;;;7.04;100.00
77626;BME280;66794;43.764;10.436;2023-03-01T08:57:34;101605.94;;;6.74;100.00
77626;BME280;66794;43.764;10.436;2023-03-01T08:59:59;101598.34;;;6.89;100.00
77626;BME280;66794;43.764;10.436;2023-03-01T09:02:25;101605.50;;;7.21;100.00
77626;BME280;66794;43.764;10.436;2023-03-01T09:04:50;101595.78;;;7.29;100.00
77626;BME280;66794;43.764;10.436;2023-03-01T09:07:19;101611.00;;;7.40;97.99
77626;BME280;66794;43.764;10.436;2023-03-01T09:09:44;101607.72;;;7.36;96.69
77626;BME280;66794;43.764;10.436;2023-03-01T09:12:09;101587.72;;;7.39;93.06
77626;BME280;66794;43.764;10.436;2023-03-01T09:14:35;101608.13;;;7.32;91.24
77626;BME280;66794;43.764;10.436;2023-03-01T09:17:03;101606.94;;;7.25;91.34
77626;BME280;66794;43.764;10.436;2023-03-01T09:19:28;101613.66;;;7.09;89.42
77626;BME280;66794;43.764;10.436;2023-03-01T09:21:54;101595.47;;;7.02;88.31
77626;BME280;66794;43.764;10.436;2023-03-01T09:24:21;101599.81;;;7.14;89.53
77626;BME280;66794;43.764;10.436;2023-03-01T09:26:47;101596.91;;;7.06;89.33
77626;BME280;66794;43.764;10.436;2023-03-01T09:29:12;101599.88;;;7.03;89.23
77626;BME280;66794;43.764;10.436;2023-03-01T09:31:39;101594.72;;;7.21;93.86
77626;BME280;66794;43.764;10.436;2023-03-01T09:34:04;101586.34;;;7.14;93.67
77626;BME280;66794;43.764;10.436;2023-03-01T09:36:30;101609.19;;;7.20;94.25
77626;BME280;66794;43.764;10.436;2023-03-01T09:38:56;101586.41;;;6.82;91.28
77626;BME280;66794;43.764;10.436;2023-03-01T09:41:42;101581.09;;;6.92;89.64
77626;BME280;66794;43.764;10.436;2023-03-01T09:46:44;101585.34;;;6.94;90.60
77626;BME280;66794;43.764;10.436;2023-03-01T09:49:15;101586.28;;;7.04;90.02
77626;BME280;66794;43.764;10.436;2023-03-01T09:51:42;101567.41;;;7.04;88.69
77626;BME280;66794;43.764;10.436;2023-03-01T09:54:08;101579.34;;;7.11;89.59
77626;BME280;66794;43.764;10.436;2023-03-01T09:56:44;101579.94;;;7.15;86.97
77626;BME280;66794;43.764;10.436;2023-03-01T10:06:40;101582.34;;;6.88;89.28
77626;BME280;66794;43.764;10.436;2023-03-01T10:09:13;101600.41;;;6.76;93.28
77626;BME280;66794;43.764;10.436;2023-03-01T10:11:50;101604.66;;;6.78;90.60
77626;BME280;66794;43.764;10.436;2023-03-01T10:19:44;101590.66;;;6.84;87.04
77626;BME280;66794;43.764;10.436;2023-03-01T10:24:43;101589.34;;;6.37;94.57
77626;BME280;66794;43.764;10.436;2023-03-01T10:27:23;101577.84;;;6.35;94.71
77626;BME280;66794;43.764;10.436;2023-03-01T10:32:17;101588.50;;;6.37;96.57
77626;BME280;66794;43.764;10.436;2023-03-01T10:34:43;101595.66;;;6.47;95.24
77626;BME280;66794;43.764;10.436;2023-03-01T10:39:34;101595.72;;;6.57;98.46
77626;BME280;66794;43.764;10.436;2023-03-01T10:42:03;101604.47;;;6.70;96.66
77626;BME280;66794;43.764;10.436;2023-03-01T10:47:12;101612.03;;;6.76;93.78
77626;BME280;66794;43.764;10.436;2023-03-01T10:49:39;101616.75;;;6.84;91.18
77626;BME280;66794;43.764;10.436;2023-03-01T10:52:17;101617.19;;;6.68;94.79
77626;BME280;66794;43.764;10.436;2023-03-01T10:54:45;101610.03;;;6.57;97.34
77626;BME280;66794;43.764;10.436;2023-03-01T10:57:49;101619.84;;;6.58;97.75
77626;BME280;66794;43.764;10.436;2023-03-01T11:00:17;101617.53;;;6.54;93.03
77626;BME280;66794;43.764;10.436;2023-03-01T11:02:46;101619.56;;;6.62;97.41
77626;BME280;66794;43.764;10.436;2023-03-01T11:10:33;101593.88;;;6.57;94.35
77626;BME280;66794;43.764;10.436;2023-03-01T11:13:13;101596.38;;;6.49;96.96
77626;BME280;66794;43.764;10.436;2023-03-01T11:15:39;101604.84;;;6.45;96.31
77626;BME280;66794;43.764;10.436;2023-03-01T11:18:05;101606.94;;;6.62;94.42
77626;BME280;66794;43.764;10.436;2023-03-01T11:20:43;101602.34;;;6.74;93.67
77626;BME280;66794;43.764;10.436;2023-03-01T11:23:10;101603.41;;;6.62;92.07
77626;BME280;66794;43.764;10.436;2023-03-01T11:25:37;101599.16;;;6.59;93.01
77626;BME280;66794;43.764;10.436;2023-03-01T11:28:04;101601.56;;;6.62;94.41
77626;BME280;66794;43.764;10.436;2023-03-01T11:30:41;101598.31;;;6.58;94.36
77626;BME280;66794;43.764;10.436;2023-03-01T11:33:17;101603.16;;;6.65;92.27
77626;BME280;66794;43.764;10.436;2023-03-01T11:38:35;101601.78;;;6.70;95.08
77626;BME280;66794;43.764;10.436;2023-03-01T11:41:04;101552.34;;;6.50;100.00
77626;BME280;66794;43.764;10.436;2023-03-01T11:51:21;101620.06;;;6.55;100.00
77626;BME280;66794;43.764;10.436;2023-03-01T11:53:51;101633.28;;;6.58;100.00
77626;BME280;66794;43.764;10.436;2023-03-01T11:56:29;101617.22;;;6.89;96.07
77626;BME280;66794;43.764;10.436;2023-03-01T12:06:33;101586.09;;;6.75;87.01
77626;BME280;66794;43.764;10.436;2023-03-01T12:11:58;101586.78;;;6.56;90.29
77626;BME280;66794;43.764;10.436;2023-03-01T12:19:33;101580.38;;;6.90;87.17
77626;BME280;66794;43.764;10.436;2023-03-01T12:25:04;101574.91;;;7.01;88.41
77626;BME280;66794;43.764;10.436;2023-03-01T12:40:20;101553.56;;;6.88;87.62
77626;BME280;66794;43.764;10.436;2023-03-01T12:43:15;101536.25;;;6.81;85.35
77626;BME280;66794;43.764;10.436;2023-03-01T12:50:42;101541.47;;;7.03;80.62
77626;BME280;66794;43.764;10.436;2023-03-01T12:53:15;101543.00;;;7.27;84.97
77626;BME280;66794;43.764;10.436;2023-03-01T12:55:45;101527.63;;;7.08;83.27
77626;BME280;66794;43.764;10.436;2023-03-01T12:58:28;101534.84;;;7.07;86.21
77626;BME280;66794;43.764;10.436;2023-03-01T13:01:14;101542.72;;;6.99;85.24
77626;BME280;66794;43.764;10.436;2023-03-01T13:06:45;101535.38;;;7.01;87.68
77626;BME280;66794;43.764;10.436;2023-03-01T13:11:43;101523.44;;;6.73;88.71
77626;BME280;66794;43.764;10.436;2023-03-01T13:16:46;101515.56;;;6.61;88.14
77626;BME280;66794;43.764;10.436;2023-03-01T13:19:21;101522.03;;;6.48;88.37
77626;BME280;66794;43.764;10.436;2023-03-01T13:21:47;101531.53;;;6.52;90.68
77626;BME280;66794;43.764;10.436;2023-03-01T13:32:29;101528.22;;;6.28;88.68
77626;BME280;66794;43.764;10.436;2023-03-01T13:37:42;101526.47;;;6.38;89.07
77626;BME280;66794;43.764;10.436;2023-03-01T13:40:56;101525.31;;;6.31;88.50
77626;BME280;66794;43.764;10.436;2023-03-01T13:42:53;101533.38;;;6.31;89.30
77626;BME280;66794;43.764;10.436;2023-03-01T13:45:24;101526.19;;;6.41;91.44
77626;BME280;66794;43.764;10.436;2023-03-01T13:47:56;101529.41;;;6.35;86.17
77626;BME280;66794;43.764;10.436;2023-03-01T13:50:24;101477.66;;;6.22;90.39
77626;BME280;66794;43.764;10.436;2023-03-01T13:52:50;101522.72;;;6.29;88.56
77626;BME280;66794;43.764;10.436;2023-03-01T13:57:50;101519.41;;;6.37;88.42
77626;BME280;66794;43.764;10.436;2023-03-01T14:05:27;101522.75;;;6.18;86.58
77626;BME280;66794;43.764;10.436;2023-03-01T14:07:53;101511.97;;;6.29;89.43
77626;BME280;66794;43.764;10.436;2023-03-01T14:10:19;101522.59;;;6.31;88.48
77626;BME280;66794;43.764;10.436;2023-03-01T14:20:30;101502.78;;;6.32;88.17
77626;BME280;66794;43.764;10.436;2023-03-01T14:22:58;101505.28;;;6.66;86.38
77626;BME280;66794;43.764;10.436;2023-03-01T14:25:25;101503.75;;;6.73;85.84
77626;BME280;66794;43.764;10.436;2023-03-01T14:27:56;101511.97;;;6.71;87.63
77626;BME280;66794;43.764;10.436;2023-03-01T14:30:32;101502.34;;;6.78;86.03
77626;BME280;66794;43.764;10.436;2023-03-01T14:33:00;101496.03;;;6.89;87.90
77626;BME280;66794;43.764;10.436;2023-03-01T14:35:29;101485.09;;;6.81;87.65
77626;BME280;66794;43.764;10.436;2023-03-01T14:37:54;101486.47;;;7.06;88.69
77626;BME280;66794;43.764;10.436;2023-03-01T14:40:24;101485.72;;;7.25;82.08
77626;BME280;66794;43.764;10.436;2023-03-01T14:42:49;101485.72;;;7.25;84.16
77626;BME280;66794;43.764;10.436;2023-03-01T14:45:15;101469.84;;;7.31;85.12